Terminal Aerodrome Forecast
Issued by NWS Charleston, WV

Current Version | Previous Version | Graphics & Text | Print | Product List | Glossary On
Versions: 1 2 3 4 5 6 7 8 9 10 11 12 13 14 15 16 17 18 19 20 21 22
000
FTUS41 KRLX 241700 RRA
TAFPKB
TAF
KPKB 241759Z 2418/2518 23008KT P6SM SCT100
     FM250300 24009G17KT P6SM SCT040 BKN080
     FM250700 26009KT 6SM -SHSN OVC028
     FM251100 26007KT P6SM BKN030
     FM251300 27007KT P6SM BKN035
     FM251600 27006KT P6SM SCT040=

USA.gov is the U.S. government's official web portal to all federal, state and local government web resources and services.